Time;durP1;ratioP1;P1;durP2;ratioP2;P2;SDS_P1;SDS_P2;PMS_P1;PMS_P2;Temp;Humidity;BMP_temperature;BMP_pressure;BME280_temperature;BME280_humidity;BME280_pressure;Samples;Min_cycle;Max_cycle;Signal;HPM_P1;HPM_P2
2022/12/30 00:00:43;;;;;;;;;2.00;1.00;;;;;8.30;80.22;101061.38;4979983;28;46284;-86
2022/12/30 00:03:09;;;;;;;;;2.50;0.50;;;;;8.28;80.33;101054.47;4996867;28;67416;-85
2022/12/30 00:05:34;;;;;;;;;0.50;0.25;;;;;8.27;79.97;101060.56;4980208;28;45553;-86
2022/12/30 00:07:59;;;;;;;;;2.00;1.00;;;;;8.24;80.29;101045.88;4963054;28;57041;-86
2022/12/30 00:10:25;;;;;;;;;1.00;0.00;;;;;8.23;80.67;101044.19;4980033;28;46569;-86
2022/12/30 00:34:57;;;;;;;;;1.00;1.00;;;;;8.06;80.95;101021.09;4982358;28;45445;-86
2022/12/30 00:37:22;;;;;;;;;1.00;0.00;;;;;8.06;81.07;101022.81;4975887;28;45456;-86
2022/12/30 00:39:48;;;;;;;;;3.50;0.00;;;;;8.04;81.03;101019.38;4976292;28;45362;-86
2022/12/30 00:44:57;;;;;;;;;0.50;0.50;;;;;8.04;80.43;101024.56;4976407;28;45375;-86
2022/12/30 00:47:22;;;;;;;;;2.00;1.00;;;;;8.02;81.17;101024.59;4976985;28;58173;-86
2022/12/30 00:57:59;;;;;;;;;4.00;2.00;;;;;7.94;81.27;101023.84;4976392;28;45387;-86
2022/12/30 01:00:25;;;;;;;;;1.00;0.50;;;;;7.93;81.48;101017.81;4975143;28;65370;-86
2022/12/30 01:02:50;;;;;;;;;4.00;1.00;;;;;7.92;80.94;101010.91;4975129;28;69515;-86
2022/12/30 01:05:15;;;;;;;;;0.00;0.00;;;;;7.89;81.23;101008.38;4959166;28;47453;-86
2022/12/30 01:07:41;;;;;;;;;3.25;0.50;;;;;7.87;81.28;101012.69;4959804;28;45341;-86
2022/12/30 01:10:06;;;;;;;;;1.25;1.00;;;;;7.87;81.33;101007.50;4977014;28;45391;-86
2022/12/30 01:12:32;;;;;;;;;1.00;1.00;;;;;7.87;81.47;101004.06;4975593;28;47278;-85
2022/12/30 01:14:58;;;;;;;;;0.75;0.75;;;;;7.83;81.55;101003.25;4976515;28;57734;-86
2022/12/30 01:17:30;;;;;;;;;4.75;0.25;;;;;7.81;81.73;101002.41;4975878;28;45490;-86
2022/12/30 01:19:55;;;;;;;;;3.50;1.00;;;;;7.81;81.76;101004.16;4975515;28;45364;-86
2022/12/30 01:22:21;;;;;;;;;2.75;0.50;;;;;7.79;82.19;100995.53;4976846;28;46572;-85
2022/12/30 01:24:47;;;;;;;;;1.00;1.00;;;;;7.78;82.05;100988.63;4976679;28;45449;-86
2022/12/30 01:27:13;;;;;;;;;1.50;1.00;;;;;7.78;81.68;100986.88;4974758;28;68923;-86
2022/12/30 01:29:41;;;;;;;;;1.75;0.75;;;;;7.78;82.25;100979.13;4975691;28;45387;-86
2022/12/30 01:32:09;;;;;;;;;2.00;0.00;;;;;7.78;82.03;100980.84;4976530;28;47149;-86
2022/12/30 01:34:35;;;;;;;;;1.50;1.00;;;;;7.77;82.10;100982.59;4975146;28;45280;-86
2022/12/30 01:37:01;;;;;;;;;0.25;0.00;;;;;7.76;82.15;100991.25;4974674;28;54513;-86
2022/12/30 01:39:26;;;;;;;;;1.25;0.25;;;;;7.74;82.09;100987.81;4976732;28;45533;-86
2022/12/30 01:41:55;;;;;;;;;4.75;0.00;;;;;7.73;82.16;100988.72;4974416;28;65471;-86
2022/12/30 01:44:53;;;;;;;;;0.00;0.00;;;;;7.73;82.21;100991.31;4975469;28;45710;-85
2022/12/30 01:47:27;;;;;;;;;0.25;0.25;;;;;7.74;82.34;100985.22;4976813;28;45511;-86
2022/12/30 01:49:59;;;;;;;;;0.75;0.00;;;;;7.72;82.48;100980.06;4975149;28;45467;-86
2022/12/30 01:52:26;;;;;;;;;1.00;0.00;;;;;7.74;82.58;100980.91;4975168;28;46816;-86
2022/12/30 01:54:55;;;;;;;;;1.75;1.00;;;;;7.77;82.72;100976.56;4974991;28;51690;-86
2022/12/30 01:57:21;;;;;;;;;1.00;0.50;;;;;7.76;82.47;100980.88;4975357;28;45531;-86
2022/12/30 01:59:47;;;;;;;;;0.00;0.00;;;;;7.77;82.22;100984.34;4974945;28;55030;-86
2022/12/30 02:02:12;;;;;;;;;6.00;3.50;;;;;7.77;82.48;100973.97;4974614;28;61397;-86
2022/12/30 02:04:37;;;;;;;;;1.00;0.00;;;;;7.74;81.98;100977.44;4974752;28;45445;-86
2022/12/30 02:07:07;;;;;;;;;1.00;1.00;;;;;7.72;82.18;100974.88;4978008;28;46238;-86
2022/12/30 02:09:33;;;;;;;;;1.00;0.75;;;;;7.70;82.12;100978.38;4978643;28;45434;-85
2022/12/30 02:11:59;;;;;;;;;4.50;2.00;;;;;7.67;82.06;100975.81;4979535;28;46174;-86
2022/12/30 02:14:26;;;;;;;;;4.00;2.00;;;;;7.65;82.23;100977.56;4978372;28;45602;-86
2022/12/30 02:17:18;;;;;;;;;2.50;2.00;;;;;7.60;82.27;100988.00;4978513;28;45489;-85
2022/12/30 02:20:21;;;;;;;;;6.00;4.25;;;;;7.56;82.86;100982.00;4977943;28;45361;-86
2022/12/30 02:23:19;;;;;;;;;4.00;1.50;;;;;7.56;82.60;100987.19;4979359;28;46612;-86
2022/12/30 02:26:02;;;;;;;;;4.25;3.50;;;;;7.55;83.20;100982.88;4938517;28;45753;-86
2022/12/30 02:29:12;;;;;;;;;2.00;2.00;;;;;7.52;83.06;100977.75;4938537;28;45418;-86
2022/12/30 02:31:58;;;;;;;;;7.50;1.25;;;;;7.49;83.14;100976.94;4862304;29;45415;-85
2022/12/30 02:34:46;;;;;;;;;9.00;4.50;;;;;7.48;83.49;100973.44;4861893;28;46629;-86
2022/12/30 02:37:11;;;;;;;;;5.00;3.00;;;;;7.47;83.28;100971.75;4861976;29;45314;-86
2022/12/30 02:39:43;;;;;;;;;5.33;2.00;;;;;7.47;83.43;100974.34;4847035;29;45330;-86
2022/12/30 02:45:41;;;;;;;;;1.75;1.75;;;;;7.47;83.17;100952.78;4788547;29;45771;-86
2022/12/30 02:48:13;;;;;;;;;4.00;2.00;;;;;7.48;83.40;100964.84;4773071;29;45915;-86
2022/12/30 02:53:27;;;;;;;;;4.75;1.25;;;;;7.51;83.49;100965.66;4788696;29;45510;-86
2022/12/30 02:55:53;;;;;;;;;4.75;1.00;;;;;7.53;83.60;100963.06;4788366;29;46494;-86
2022/12/30 02:58:19;;;;;;;;;8.75;2.00;;;;;7.56;84.06;100956.09;4788524;29;45625;-86
2022/12/30 03:04:05;;;;;;;;;4.25;2.00;;;;;7.63;83.67;100943.91;4806578;29;45421;-86
2022/12/30 03:06:36;;;;;;;;;3.00;2.00;;;;;7.66;83.84;100946.47;4806528;29;47175;-86
2022/12/30 03:09:30;;;;;;;;;5.25;2.00;;;;;7.67;83.89;100936.94;4847131;29;45354;-86
2022/12/30 03:12:07;;;;;;;;;2.00;1.00;;;;;7.69;83.87;100930.00;4862093;29;45489;-86
2022/12/30 03:14:39;;;;;;;;;6.00;2.00;;;;;7.70;83.76;100930.00;4861992;29;45411;-86
2022/12/30 03:17:11;;;;;;;;;5.00;2.00;;;;;7.67;83.75;100924.88;4860631;29;46593;-86
2022/12/30 03:19:40;;;;;;;;;4.00;4.00;;;;;7.65;83.72;100918.84;4937342;28;45930;-86
2022/12/30 03:27:02;;;;;;;;;7.50;1.75;;;;;7.64;84.28;100921.47;4958044;28;45297;-86
2022/12/30 03:27:38;;;;;;;;;5.00;2.00;;;;;7.67;83.87;100905.84;4958123;28;45821;-86
2022/12/30 03:30:04;;;;;;;;;2.50;1.75;;;;;7.69;84.10;100897.19;4957962;28;45738;-87
2022/12/30 03:32:30;;;;;;;;;4.25;2.00;;;;;7.72;83.99;100912.69;4957577;28;45406;-86
2022/12/30 03:34:55;;;;;;;;;4.00;1.75;;;;;7.77;84.50;100904.88;4957973;28;45588;-86
2022/12/30 03:37:49;;;;;;;;;2.75;1.25;;;;;7.79;84.06;100907.44;4967914;28;60937;-85
2022/12/30 03:40:28;;;;;;;;;5.00;2.00;;;;;7.79;84.22;100910.88;4977100;28;45429;-86
2022/12/30 03:42:54;;;;;;;;;2.00;0.75;;;;;7.79;83.92;100899.66;4977162;28;45439;-86
2022/12/30 03:45:20;;;;;;;;;5.00;2.00;;;;;7.80;84.23;100904.81;4960562;28;45501;-86
2022/12/30 03:47:45;;;;;;;;;2.00;2.00;;;;;7.83;84.48;100898.72;4976997;28;45398;-86
2022/12/30 03:50:11;;;;;;;;;4.00;2.00;;;;;7.84;84.31;100887.50;4976496;28;60769;-86
2022/12/30 03:52:36;;;;;;;;;1.00;1.00;;;;;7.83;84.18;100886.63;4977337;28;45378;-86
2022/12/30 03:55:02;;;;;;;;;5.50;1.00;;;;;7.86;84.35;100884.00;4978332;28;45335;-86
2022/12/30 03:57:28;;;;;;;;;1.75;1.75;;;;;7.87;83.96;100875.31;4976775;28;47867;-86
2022/12/30 03:59:53;;;;;;;;;4.25;2.00;;;;;7.91;84.35;100871.81;4975684;28;70104;-86
2022/12/30 04:02:18;;;;;;;;;5.00;2.00;;;;;7.93;84.22;100866.59;4978247;28;45291;-86
2022/12/30 04:04:44;;;;;;;;;6.25;1.25;;;;;7.92;84.31;100852.78;4977275;28;60712;-86
2022/12/30 04:07:09;;;;;;;;;7.75;3.50;;;;;7.92;84.47;100854.53;4976084;28;64457;-86
2022/12/30 04:09:34;;;;;;;;;11.50;1.50;;;;;7.92;84.10;100849.34;4976757;28;45387;-86
2022/12/30 04:12:00;;;;;;;;;6.50;4.00;;;;;7.88;84.03;100845.09;4976370;28;55704;-86
2022/12/30 04:14:25;;;;;;;;;3.00;1.25;;;;;7.88;84.60;100837.31;4977599;28;45446;-86
2022/12/30 04:16:51;;;;;;;;;4.00;1.00;;;;;7.88;84.53;100832.13;4975721;28;71433;-86
2022/12/30 04:19:16;;;;;;;;;3.50;0.25;;;;;7.86;84.72;100828.72;4975757;28;63694;-86
2022/12/30 04:21:41;;;;;;;;;2.00;2.00;;;;;7.80;84.91;100832.25;4977843;28;45495;-86
2022/12/30 04:24:07;;;;;;;;;4.25;1.25;;;;;7.79;85.48;100829.69;4976605;28;45549;-86
2022/12/30 04:26:32;;;;;;;;;1.00;1.00;;;;;7.79;85.05;100832.28;4976333;28;46801;-86
2022/12/30 04:28:57;;;;;;;;;4.50;2.50;;;;;7.78;85.29;100836.59;4975681;28;58237;-86
2022/12/30 04:31:23;;;;;;;;;3.50;2.00;;;;;7.78;85.47;100836.59;4976002;28;53739;-86
2022/12/30 04:33:52;;;;;;;;;2.50;1.00;;;;;7.78;85.39;100839.19;4976068;28;53799;-86
2022/12/30 04:36:19;;;;;;;;;3.00;3.00;;;;;7.79;86.00;100840.91;4975890;28;47311;-86
2022/12/30 04:38:45;;;;;;;;;8.00;2.00;;;;;7.80;85.68;100841.75;4977444;28;45756;-86
2022/12/30 04:41:10;;;;;;;;;5.75;4.00;;;;;7.81;85.72;100833.97;4976347;28;45481;-86
2022/12/30 04:43:36;;;;;;;;;4.00;2.00;;;;;7.82;86.10;100827.03;4959547;28;45534;-86
2022/12/30 04:46:01;;;;;;;;;7.50;5.50;;;;;7.83;86.04;100823.56;4959894;28;48598;-86
2022/12/30 04:48:26;;;;;;;;;4.25;4.00;;;;;7.86;85.51;100821.78;4976005;28;50940;-86
2022/12/30 04:50:52;;;;;;;;;4.25;3.50;;;;;7.87;85.90;100825.22;4959133;28;64324;-86
2022/12/30 04:53:17;;;;;;;;;4.00;4.00;;;;;7.87;85.93;100825.22;4959147;28;63137;-86
2022/12/30 04:55:42;;;;;;;;;4.00;4.00;;;;;7.84;86.37;100809.75;4959080;28;67264;-86
2022/12/30 04:58:08;;;;;;;;;7.75;3.00;;;;;7.85;85.87;100801.94;4975364;28;52328;-86
2022/12/30 05:00:33;;;;;;;;;6.50;2.50;;;;;7.87;86.13;100792.38;4975559;28;56875;-86
2022/12/30 05:02:59;;;;;;;;;8.50;4.25;;;;;7.86;86.65;100800.22;4975950;28;45540;-86
2022/12/30 05:05:24;;;;;;;;;9.00;4.25;;;;;7.86;85.99;100792.44;4958711;28;66362;-85
2022/12/30 05:07:50;;;;;;;;;5.50;4.00;;;;;7.86;87.06;100789.84;4975712;28;45400;-86
2022/12/30 05:10:15;;;;;;;;;3.25;1.00;;;;;7.86;86.17;100779.47;4976411;28;58599;-86
2022/12/30 05:12:41;;;;;;;;;8.00;4.00;;;;;7.85;86.15;100777.75;4959153;28;45444;-86
2022/12/30 05:15:06;;;;;;;;;8.75;5.00;;;;;7.85;86.78;100757.03;4975453;28;55192;-86
2022/12/30 05:17:32;;;;;;;;;11.25;5.00;;;;;7.85;86.89;100750.09;4975530;28;45543;-86
2022/12/30 05:19:57;;;;;;;;;6.00;4.25;;;;;7.82;86.69;100744.97;4975501;28;45827;-86
2022/12/30 05:22:22;;;;;;;;;6.50;4.00;;;;;7.83;86.56;100736.31;4958866;28;58195;-86
2022/12/30 05:27:32;;;;;;;;;5.00;4.50;;;;;7.89;86.98;100732.75;4975451;28;45264;-86
2022/12/30 05:29:57;;;;;;;;;10.50;5.00;;;;;7.91;86.87;100747.41;4976473;28;53750;-87
2022/12/30 05:32:22;;;;;;;;;5.25;4.00;;;;;7.93;86.91;100740.47;4975612;28;45415;-86
2022/12/30 05:34:48;;;;;;;;;6.00;2.00;;;;;7.94;87.05;100731.78;4958651;28;63150;-86
2022/12/30 05:37:13;;;;;;;;;4.00;4.00;;;;;7.95;86.78;100733.50;4988925;28;45509;-86
2022/12/30 05:39:39;;;;;;;;;8.25;4.25;;;;;7.97;87.46;100727.44;4978898;28;45374;-86
2022/12/30 05:42:04;;;;;;;;;5.00;4.00;;;;;7.97;87.16;100717.06;4995137;28;45334;-86
2022/12/30 05:44:31;;;;;;;;;5.00;2.00;;;;;7.99;87.60;100713.56;4977842;28;62329;-86
2022/12/30 05:46:56;;;;;;;;;9.00;4.00;;;;;8.02;87.42;100708.31;4996212;28;45798;-86
2022/12/30 05:49:22;;;;;;;;;4.00;4.00;;;;;8.03;87.18;100694.47;4996288;28;45407;-86
2022/12/30 05:51:47;;;;;;;;;4.25;2.00;;;;;8.07;87.58;100697.88;4978314;28;52498;-86
2022/12/30 05:54:12;;;;;;;;;7.75;4.25;;;;;8.12;87.68;100698.66;4977833;28;62166;-87
2022/12/30 05:56:38;;;;;;;;;5.75;1.75;;;;;8.16;87.05;100684.72;4977951;28;45407;-86
2022/12/30 05:59:03;;;;;;;;;2.00;1.00;;;;;8.18;87.14;100685.56;4961999;28;52371;-86
2022/12/30 06:01:28;;;;;;;;;1.50;1.50;;;;;8.21;86.71;100667.34;4977903;28;58179;-84
2022/12/30 06:03:55;;;;;;;;;2.00;2.00;;;;;8.23;86.88;100668.16;4995898;28;46364;-86
2022/12/30 06:06:21;;;;;;;;;5.00;1.00;;;;;8.25;86.94;100661.22;4978434;28;45653;-86
2022/12/30 06:08:46;;;;;;;;;2.00;1.25;;;;;8.27;86.69;100656.00;4978087;28;54697;-86
2022/12/30 06:11:12;;;;;;;;;1.25;1.00;;;;;8.31;86.75;100652.44;4977682;28;52991;-86
2022/12/30 06:13:37;;;;;;;;;1.75;0.00;;;;;8.31;86.80;100653.28;4977231;28;70838;-86
2022/12/30 06:16:02;;;;;;;;;1.50;0.75;;;;;8.34;87.04;100645.47;4995281;28;60723;-86
2022/12/30 06:18:28;;;;;;;;;0.50;0.00;;;;;8.38;86.42;100635.03;4995968;28;45403;-86
2022/12/30 06:20:54;;;;;;;;;1.00;0.50;;;;;8.42;86.47;100637.53;4978305;28;45475;-86
2022/12/30 06:23:19;;;;;;;;;3.25;1.25;;;;;8.43;86.98;100618.50;4995668;28;45300;-86
2022/12/30 06:25:44;;;;;;;;;2.00;2.00;;;;;8.48;86.75;100623.59;4995412;28;45224;-86
2022/12/30 06:28:10;;;;;;;;;1.00;1.00;;;;;8.54;86.89;100610.47;4978305;28;45431;-86
2022/12/30 06:30:35;;;;;;;;;2.00;0.50;;;;;8.57;86.78;100610.41;4995310;28;54471;-86
2022/12/30 06:33:01;;;;;;;;;2.00;0.00;;;;;8.59;86.56;100595.66;4977193;28;63559;-86
2022/12/30 06:35:27;;;;;;;;;1.25;1.25;;;;;8.63;86.89;100589.50;4978163;28;45982;-86
2022/12/30 06:37:52;;;;;;;;;0.25;0.00;;;;;8.69;86.54;100570.34;4961508;28;45406;-87
2022/12/30 06:40:18;;;;;;;;;6.75;1.00;;;;;8.71;86.44;100569.44;4976953;28;60257;-86
2022/12/30 06:42:44;;;;;;;;;1.00;1.00;;;;;8.72;86.50;100558.13;4977871;28;45403;-86
2022/12/30 06:45:09;;;;;;;;;1.00;1.00;;;;;8.73;86.47;100556.41;4978054;28;45657;-85
2022/12/30 06:47:34;;;;;;;;;0.75;0.00;;;;;8.76;86.22;100545.09;4977397;28;57827;-86
2022/12/30 06:50:00;;;;;;;;;3.25;0.75;;;;;8.78;86.38;100553.69;4977973;28;45437;-85
2022/12/30 06:52:25;;;;;;;;;4.50;1.75;;;;;8.79;86.63;100555.41;4977590;28;62466;-86
2022/12/30 06:54:50;;;;;;;;;5.00;2.00;;;;;8.81;86.24;100562.25;4998427;28;45346;-86
2022/12/30 06:57:16;;;;;;;;;2.00;0.50;;;;;8.83;86.40;100562.22;4964809;28;46221;-85
2022/12/30 06:59:41;;;;;;;;;2.25;1.75;;;;;8.84;86.72;100543.16;4981190;28;45467;-86
2022/12/30 07:02:10;;;;;;;;;2.00;1.25;;;;;8.87;86.47;100533.56;4998198;28;51891;-86
2022/12/30 07:04:35;;;;;;;;;5.00;1.50;;;;;8.88;86.31;100529.25;4964782;28;45302;-86
2022/12/30 07:07:00;;;;;;;;;2.75;1.00;;;;;8.90;86.32;100530.88;4980409;28;64115;-86
2022/12/30 07:09:26;;;;;;;;;2.00;0.75;;;;;8.92;86.36;100520.47;4964096;28;50303;-84
2022/12/30 07:11:51;;;;;;;;;2.00;2.00;;;;;8.95;86.02;100506.56;4980683;28;53787;-86
2022/12/30 07:14:16;;;;;;;;;2.25;1.00;;;;;8.99;85.94;100500.38;4997918;28;59577;-86
2022/12/30 07:16:42;;;;;;;;;2.00;1.25;;;;;8.99;86.07;100493.47;4980822;28;46232;-86
2022/12/30 07:19:07;;;;;;;;;0.75;0.75;;;;;9.03;85.97;100489.03;4998205;28;53083;-85
2022/12/30 07:21:32;;;;;;;;;1.50;0.00;;;;;9.05;86.30;100474.28;4980591;28;48530;-86
2022/12/30 07:23:58;;;;;;;;;0.00;0.00;;;;;9.10;85.98;100464.59;4980564;28;45378;-85
2022/12/30 07:26:24;;;;;;;;;1.00;1.00;;;;;9.13;85.53;100474.91;4981067;28;45476;-86
2022/12/30 07:28:51;;;;;;;;;1.00;1.00;;;;;9.18;85.80;100473.03;4980797;28;45505;-86
2022/12/30 07:31:17;;;;;;;;;1.00;1.00;;;;;9.21;85.43;100467.78;4998172;28;47041;-86
2022/12/30 07:33:42;;;;;;;;;0.75;0.75;;;;;9.23;85.40;100463.38;4997628;28;58470;-86
2022/12/30 07:36:07;;;;;;;;;0.50;0.50;;;;;9.28;85.08;100442.47;4980326;28;45395;-86
2022/12/30 07:38:33;;;;;;;;;1.00;0.00;;;;;9.30;85.12;100446.75;4997952;28;45299;-86
2022/12/30 07:40:58;;;;;;;;;1.50;1.00;;;;;9.34;85.21;100444.03;4964038;28;48275;-86
2022/12/30 07:43:23;;;;;;;;;2.00;1.00;;;;;9.36;84.90;100443.13;4963455;28;56419;-86
2022/12/30 07:45:49;;;;;;;;;1.50;0.75;;;;;9.39;84.74;100430.03;4997814;28;53415;-86
2022/12/30 07:48:15;;;;;;;;;0.00;0.00;;;;;9.42;84.86;100442.94;4964224;28;45371;-86
2022/12/30 07:50:40;;;;;;;;;0.00;0.00;;;;;9.46;84.54;100447.13;4980295;28;45371;-86
2022/12/30 07:53:05;;;;;;;;;2.75;2.00;;;;;9.50;84.65;100440.09;4963743;28;45515;-86
2022/12/30 07:55:32;;;;;;;;;1.50;0.00;;;;;9.50;84.67;100451.34;4979931;28;56320;-86
2022/12/30 07:57:58;;;;;;;;;2.00;0.25;;;;;9.55;84.09;100450.38;4997976;28;45565;-86
2022/12/30 08:00:23;;;;;;;;;2.25;0.00;;;;;9.56;84.36;100439.06;4997749;28;47381;-86
2022/12/30 08:02:48;;;;;;;;;2.00;0.50;;;;;9.57;84.32;100448.59;4979716;28;55591;-86
2022/12/30 08:05:14;;;;;;;;;1.50;1.50;;;;;9.57;84.08;100449.44;4997534;28;45377;-86
2022/12/30 08:07:39;;;;;;;;;1.00;1.00;;;;;9.59;83.88;100442.44;4963523;28;45400;-86
2022/12/30 08:10:05;;;;;;;;;2.00;0.75;;;;;9.61;84.08;100434.59;4997391;28;45554;-86
2022/12/30 08:12:30;;;;;;;;;5.75;0.75;;;;;9.62;83.61;100431.09;4979994;28;45375;-86
2022/12/30 08:14:56;;;;;;;;;2.00;0.75;;;;;9.63;83.52;100404.22;4997738;28;45619;-86
2022/12/30 08:17:21;;;;;;;;;3.50;1.00;;;;;9.64;83.87;100408.53;4979408;28;59915;-86
2022/12/30 08:19:47;;;;;;;;;2.00;0.75;;;;;9.65;83.93;100411.06;4979872;28;45471;-87
2022/12/30 08:22:12;;;;;;;;;1.00;1.00;;;;;9.64;83.68;100403.34;4997019;28;45246;-86
2022/12/30 08:24:37;;;;;;;;;1.25;0.75;;;;;9.65;84.30;100412.81;4979603;28;50230;-86
2022/12/30 08:27:03;;;;;;;;;0.75;0.00;;;;;9.62;84.55;100405.97;4979489;28;55864;-86
2022/12/30 08:29:28;;;;;;;;;0.00;0.00;;;;;9.58;84.74;100401.75;4978943;28;67590;-86
2022/12/30 08:31:57;;;;;;;;;2.00;0.00;;;;;9.56;85.30;100394.91;4997133;28;50820;-85
2022/12/30 08:34:23;;;;;;;;;0.25;0.25;;;;;9.54;85.19;100381.09;4979828;28;45445;-85
2022/12/30 08:36:48;;;;;;;;;0.00;0.00;;;;;9.47;85.79;100383.03;4978340;28;60678;-84
2022/12/30 08:39:14;;;;;;;;;0.25;0.25;;;;;9.43;86.18;100376.22;4979591;28;50625;-84
2022/12/30 08:41:42;;;;;;;;;0.00;0.00;;;;;9.39;86.11;100362.47;4996955;28;45462;-84
2022/12/30 08:44:08;;;;;;;;;1.00;1.00;;;;;9.36;86.59;100364.31;4997363;28;45381;-85
2022/12/30 08:46:35;;;;;;;;;1.50;0.00;;;;;9.33;87.06;100359.22;4997164;28;45384;-84
2022/12/30 08:49:01;;;;;;;;;1.50;0.75;;;;;9.29;87.66;100354.13;4979350;28;46277;-85
2022/12/30 08:51:27;;;;;;;;;2.00;0.00;;;;;9.27;87.20;100355.06;4996619;28;45388;-85
2022/12/30 08:53:53;;;;;;;;;1.00;1.00;;;;;9.24;87.72;100344.75;4979421;28;45397;-85
2022/12/30 08:56:24;;;;;;;;;2.00;0.00;;;;;9.22;88.01;100339.63;4978971;28;54130;-85
2022/12/30 08:58:50;;;;;;;;;0.75;0.75;;;;;9.21;87.85;100322.34;4979353;28;47100;-84
2022/12/30 09:01:18;;;;;;;;;0.50;0.50;;;;;9.21;88.28;100327.53;4997043;28;45367;-85
2022/12/30 09:03:44;;;;;;;;;0.00;0.00;;;;;9.16;88.30;100325.97;4979044;28;45359;-85
2022/12/30 09:06:11;;;;;;;;;1.00;1.00;;;;;9.10;88.90;100322.66;4979125;28;45457;-84
2022/12/30 09:08:36;;;;;;;;;0.00;0.00;;;;;9.08;89.02;100320.97;4997431;28;46644;-84
2022/12/30 09:11:10;;;;;;;;;1.00;1.00;;;;;9.06;89.26;100292.50;4963395;28;46023;-85
2022/12/30 09:13:37;;;;;;;;;0.75;0.75;;;;;9.03;89.79;100289.97;4977024;28;45379;-85
2022/12/30 09:16:04;;;;;;;;;2.00;1.00;;;;;9.03;90.58;100289.97;4978355;28;45602;-85
2022/12/30 09:18:29;;;;;;;;;4.00;1.50;;;;;9.02;90.19;100277.03;4996110;28;46318;-84
2022/12/30 09:20:55;;;;;;;;;1.25;1.00;;;;;9.00;90.36;100264.09;4978899;28;46064;-84
2022/12/30 09:23:20;;;;;;;;;0.50;0.00;;;;;9.01;90.51;100275.34;4996417;28;45364;-84
2022/12/30 09:25:46;;;;;;;;;1.00;1.00;;;;;9.01;90.45;100268.41;4962277;28;59940;-85
2022/12/30 09:28:11;;;;;;;;;2.00;1.00;;;;;9.02;90.58;100262.31;4978323;28;60941;-85
2022/12/30 09:30:36;;;;;;;;;1.00;1.00;;;;;9.03;90.59;100245.84;4962146;28;64544;-85
2022/12/30 09:33:02;;;;;;;;;0.75;0.25;;;;;9.04;90.68;100254.47;4978057;28;53241;-84
2022/12/30 09:35:27;;;;;;;;;2.00;0.00;;;;;9.03;90.94;100242.41;4978934;28;45433;-85
2022/12/30 09:37:53;;;;;;;;;1.50;0.25;;;;;9.03;91.55;100253.63;4995972;28;48100;-85
2022/12/30 09:40:32;;;;;;;;;1.00;1.00;;;;;9.04;91.25;100262.25;4979142;28;45469;-85
2022/12/30 09:43:16;;;;;;;;;0.25;0.00;;;;;9.04;91.47;100244.94;4979320;28;45491;-84
2022/12/30 09:45:49;;;;;;;;;1.00;1.00;;;;;9.06;91.12;100237.97;4981643;28;45416;-85
2022/12/30 09:48:24;;;;;;;;;1.50;0.00;;;;;9.08;91.45;100235.31;4978355;28;45466;-85
2022/12/30 09:51:01;;;;;;;;;0.50;0.50;;;;;9.11;91.76;100228.28;4978780;28;45375;-85
2022/12/30 09:53:50;;;;;;;;;0.50;0.50;;;;;9.13;91.40;100222.19;4978860;28;45316;-85
2022/12/30 09:56:20;;;;;;;;;1.50;1.00;;;;;9.15;91.63;100216.03;4978676;28;45559;-84
2022/12/30 09:58:45;;;;;;;;;1.00;1.00;;;;;9.19;91.64;100206.41;4978666;28;47638;-85
2022/12/30 10:01:22;;;;;;;;;0.00;0.00;;;;;9.22;91.59;100178.59;4977879;28;55003;-85
2022/12/30 10:03:51;;;;;;;;;1.75;1.00;;;;;9.25;91.75;100173.31;4978384;28;45376;-85
2022/12/30 10:06:33;;;;;;;;;0.00;0.00;;;;;9.27;91.83;100173.28;4978469;28;45498;-84
2022/12/30 10:09:16;;;;;;;;;1.00;1.00;;;;;9.27;91.92;100168.91;4978419;28;45473;-84
2022/12/30 10:11:47;;;;;;;;;1.00;0.25;;;;;9.28;91.92;100148.97;4995905;28;45751;-84
2022/12/30 10:14:28;;;;;;;;;0.50;0.25;;;;;9.30;92.13;100155.84;4996005;28;45426;-85
2022/12/30 10:16:57;;;;;;;;;2.75;0.00;;;;;9.33;92.15;100141.91;4994428;28;45391;-84
2022/12/30 10:19:25;;;;;;;;;0.50;0.50;;;;;9.35;91.96;100132.31;4995754;28;47399;-85
2022/12/30 10:22:18;;;;;;;;;2.25;0.25;;;;;9.37;92.38;100121.88;4995678;28;45335;-84
2022/12/30 10:24:47;;;;;;;;;1.50;0.75;;;;;9.40;92.48;100104.44;4978305;28;45466;-84
2022/12/30 10:27:21;;;;;;;;;0.00;0.00;;;;;9.45;92.63;100106.84;4979930;28;45311;-84
2022/12/30 10:29:47;;;;;;;;;1.00;0.00;;;;;9.48;92.70;100114.56;4981636;28;45524;-84
2022/12/30 10:32:20;;;;;;;;;1.00;0.00;;;;;9.54;92.50;100097.91;4999186;28;45435;-85
2022/12/30 10:34:47;;;;;;;;;2.00;0.00;;;;;9.59;92.86;100112.44;4999885;28;45406;-85
2022/12/30 10:37:17;;;;;;;;;0.00;0.00;;;;;9.64;92.27;100102.72;4974888;28;45639;-84
2022/12/30 10:39:52;;;;;;;;;0.00;0.00;;;;;9.74;92.88;100094.59;4981542;28;46430;-85
2022/12/30 10:42:51;;;;;;;;;0.00;0.00;;;;;9.84;92.77;100090.75;4981277;28;45327;-84
2022/12/30 10:45:28;;;;;;;;;0.00;0.00;;;;;9.92;93.36;100095.69;4921863;28;45502;-84
2022/12/30 10:48:32;;;;;;;;;0.00;0.00;;;;;10.00;93.18;100089.31;4938414;28;45789;-84
2022/12/30 10:50:57;;;;;;;;;0.00;0.00;;;;;10.09;92.73;100072.53;4938197;28;46404;-85
2022/12/30 10:53:25;;;;;;;;;0.00;0.00;;;;;10.19;93.08;100088.63;4922083;28;45352;-85
2022/12/30 10:55:54;;;;;;;;;0.00;0.00;;;;;10.26;92.61;100036.31;4922271;28;45416;-85
2022/12/30 10:58:29;;;;;;;;;0.75;0.00;;;;;10.35;92.88;100049.91;4937931;28;45483;-85
2022/12/30 11:00:55;;;;;;;;;0.00;0.00;;;;;10.38;92.59;100061.03;4921829;28;45467;-85
2022/12/30 11:03:44;;;;;;;;;0.00;0.00;;;;;10.50;92.44;100048.47;4921725;28;45473;-84
2022/12/30 11:06:17;;;;;;;;;0.00;0.00;;;;;10.62;92.33;100028.00;4922179;28;45362;-85
2022/12/30 11:08:42;;;;;;;;;0.00;0.00;;;;;10.70;92.08;100025.06;4937828;28;45429;-85
2022/12/30 11:11:08;;;;;;;;;0.00;0.00;;;;;10.74;91.66;100008.41;4921122;28;64713;-85
2022/12/30 11:16:29;;;;;;;;;0.00;0.00;;;;;10.85;91.82;100044.44;4924001;28;45427;-85
2022/12/30 11:18:56;;;;;;;;;1.00;0.00;;;;;10.93;91.20;100031.94;4921708;28;45305;-85
2022/12/30 11:21:27;;;;;;;;;1.75;0.00;;;;;11.06;91.47;100005.38;4936174;28;46901;-86
2022/12/30 11:23:54;;;;;;;;;0.00;0.00;;;;;11.15;91.28;100015.41;4965036;28;45423;-86
2022/12/30 11:26:21;;;;;;;;;0.00;0.00;;;;;11.20;90.91;100013.47;4965379;28;45372;-84
2022/12/30 11:28:51;;;;;;;;;0.00;0.00;;;;;11.30;90.87;100019.13;4981647;28;45565;-85
2022/12/30 11:31:17;;;;;;;;;0.00;0.00;;;;;11.44;91.12;100006.34;4980765;28;46595;-85
2022/12/30 11:33:51;;;;;;;;;0.00;0.00;;;;;11.55;90.73;99998.00;4980851;28;45276;-85
2022/12/30 11:36:21;;;;;;;;;0.00;0.00;;;;;11.62;90.71;100002.88;4980440;28;45351;-86
2022/12/30 11:38:49;;;;;;;;;0.00;0.00;;;;;11.64;90.30;100015.84;4979993;28;45512;-85
2022/12/30 11:41:17;;;;;;;;;0.00;0.00;;;;;11.66;90.32;100006.19;4980478;28;47244;-85
2022/12/30 11:43:48;;;;;;;;;0.00;0.00;;;;;11.70;90.32;99959.97;4997845;28;45421;-84
2022/12/30 11:46:16;;;;;;;;;0.00;0.00;;;;;11.67;89.83;100007.06;4998130;28;45461;-85
2022/12/30 11:48:58;;;;;;;;;1.50;0.00;;;;;11.64;90.42;99989.78;4964138;28;45630;-85
2022/12/30 11:51:41;;;;;;;;;0.00;0.00;;;;;11.60;90.24;100002.09;4963990;28;47363;-85
2022/12/30 11:54:09;;;;;;;;;1.00;0.00;;;;;11.60;90.61;99991.69;4964007;28;45688;-85
2022/12/30 11:56:36;;;;;;;;;0.25;0.00;;;;;11.65;90.50;99982.81;4998048;28;45474;-85
2022/12/30 11:59:30;;;;;;;;;0.00;0.00;;;;;11.62;90.44;99974.22;4980075;28;45344;-85
2022/12/30 12:01:58;;;;;;;;;0.00;0.00;;;;;11.61;90.55;99989.94;4980300;28;46356;-85
2022/12/30 12:04:34;;;;;;;;;0.00;0.00;;;;;11.65;90.89;100001.91;4980383;28;45635;-85
2022/12/30 12:07:00;;;;;;;;;0.00;0.00;;;;;11.80;91.38;99967.31;4963820;28;45283;-85
2022/12/30 12:09:34;;;;;;;;;0.00;0.00;;;;;12.08;90.96;99953.00;4980095;28;45587;-85
2022/12/30 12:12:05;;;;;;;;;0.75;0.00;;;;;12.16;90.21;99976.13;4980099;28;45491;-86
2022/12/30 12:14:39;;;;;;;;;0.00;0.00;;;;;12.15;89.97;99974.44;4997406;28;45525;-86
2022/12/30 12:17:28;;;;;;;;;0.00;0.00;;;;;12.16;89.83;99978.72;4980336;28;45466;-85
2022/12/30 12:19:59;;;;;;;;;0.75;0.00;;;;;12.18;89.75;99962.09;4982125;28;45319;-85
2022/12/30 12:22:49;;;;;;;;;0.00;0.00;;;;;12.22;90.08;99975.84;4980904;28;46437;-85
2022/12/30 12:25:20;;;;;;;;;0.00;0.00;;;;;12.27;90.17;99959.97;4998323;28;45197;-85
2022/12/30 12:27:49;;;;;;;;;0.00;0.00;;;;;12.39;90.29;99962.81;4979904;28;45385;-86
2022/12/30 12:30:14;;;;;;;;;0.00;0.00;;;;;12.49;90.14;99963.22;4997634;28;45410;-85